sensor_id;sensor_type;location;lat;lon;timestamp;temperature;humidity
1546;DHT22;766;51.502;9.752;2023-05-29T00:00:59;14.20;99.90
1546;DHT22;766;51.502;9.752;2023-05-29T00:03:28;14.30;99.90
1546;DHT22;766;51.502;9.752;2023-05-29T00:06:02;14.10;99.90
1546;DHT22;766;51.502;9.752;2023-05-29T00:08:32;13.80;99.90
1546;DHT22;766;51.502;9.752;2023-05-29T00:11:00;13.80;99.90
1546;DHT22;766;51.502;9.752;2023-05-29T00:13:28;13.90;99.90
1546;DHT22;766;51.502;9.752;2023-05-29T00:15:57;13.80;99.90
1546;DHT22;766;51.502;9.752;2023-05-29T00:18:27;13.70;99.90
1546;DHT22;766;51.502;9.752;2023-05-29T00:20:59;13.50;99.90
1546;DHT22;766;51.502;9.752;2023-05-29T00:23:28;13.30;99.90
1546;DHT22;766;51.502;9.752;2023-05-29T00:25:58;13.10;99.90
1546;DHT22;766;51.502;9.752;2023-05-29T00:28:27;13.10;99.90
1546;DHT22;766;51.502;9.752;2023-05-29T00:30:55;12.70;99.90
1546;DHT22;766;51.502;9.752;2023-05-29T00:33:23;13.10;99.90
1546;DHT22;766;51.502;9.752;2023-05-29T00:35:52;13.30;99.90
1546;DHT22;766;51.502;9.752;2023-05-29T00:38:20;13.30;99.90
1546;DHT22;766;51.502;9.752;2023-05-29T00:40:49;13.20;99.90
1546;DHT22;766;51.502;9.752;2023-05-29T00:43:19;12.90;99.90
1546;DHT22;766;51.502;9.752;2023-05-29T00:45:47;13.00;99.90
1546;DHT22;766;51.502;9.752;2023-05-29T00:48:16;13.20;99.90
1546;DHT22;766;51.502;9.752;2023-05-29T00:50:45;12.90;99.90
1546;DHT22;766;51.502;9.752;2023-05-29T00:53:14;13.00;99.90
1546;DHT22;766;51.502;9.752;2023-05-29T00:55:42;13.20;99.90
1546;DHT22;766;51.502;9.752;2023-05-29T00:58:15;13.20;99.90
1546;DHT22;766;51.502;9.752;2023-05-29T01:00:45;13.10;99.90
1546;DHT22;766;51.502;9.752;2023-05-29T01:03:14;12.70;99.90
1546;DHT22;766;51.502;9.752;2023-05-29T01:05:44;12.80;99.90
1546;DHT22;766;51.502;9.752;2023-05-29T01:08:13;12.70;99.90
1546;DHT22;766;51.502;9.752;2023-05-29T01:10:42;12.70;99.90
1546;DHT22;766;51.502;9.752;2023-05-29T01:13:14;12.40;99.90
1546;DHT22;766;51.502;9.752;2023-05-29T01:15:52;12.40;99.90
1546;DHT22;766;51.502;9.752;2023-05-29T01:18:33;12.60;99.90
1546;DHT22;766;51.502;9.752;2023-05-29T01:21:06;12.60;99.90
1546;DHT22;766;51.502;9.752;2023-05-29T01:26:47;12.20;99.90
1546;DHT22;766;51.502;9.752;2023-05-29T01:29:19;12.20;99.90
1546;DHT22;766;51.502;9.752;2023-05-29T01:31:48;12.10;99.90
1546;DHT22;766;51.502;9.752;2023-05-29T01:34:17;12.10;99.90
1546;DHT22;766;51.502;9.752;2023-05-29T01:36:46;12.20;99.90
1546;DHT22;766;51.502;9.752;2023-05-29T01:39:16;12.30;99.90
1546;DHT22;766;51.502;9.752;2023-05-29T01:41:47;12.70;99.90
1546;DHT22;766;51.502;9.752;2023-05-29T01:44:17;12.80;99.90
1546;DHT22;766;51.502;9.752;2023-05-29T01:46:48;12.70;99.90
1546;DHT22;766;51.502;9.752;2023-05-29T01:49:17;12.60;99.90
1546;DHT22;766;51.502;9.752;2023-05-29T01:51:46;12.50;99.90
1546;DHT22;766;51.502;9.752;2023-05-29T01:54:15;12.50;99.90
1546;DHT22;766;51.502;9.752;2023-05-29T01:56:46;12.50;99.90
1546;DHT22;766;51.502;9.752;2023-05-29T01:59:16;12.30;99.90
1546;DHT22;766;51.502;9.752;2023-05-29T02:01:47;12.20;99.90
1546;DHT22;766;51.502;9.752;2023-05-29T02:04:22;12.50;99.90
1546;DHT22;766;51.502;9.752;2023-05-29T02:06:50;12.60;99.90
1546;DHT22;766;51.502;9.752;2023-05-29T02:09:21;12.70;99.90
1546;DHT22;766;51.502;9.752;2023-05-29T02:11:50;12.60;99.90
1546;DHT22;766;51.502;9.752;2023-05-29T02:14:20;12.70;99.90
1546;DHT22;766;51.502;9.752;2023-05-29T02:16:48;12.80;99.90
1546;DHT22;766;51.502;9.752;2023-05-29T02:19:19;12.80;99.90
1546;DHT22;766;51.502;9.752;2023-05-29T02:21:47;12.80;99.90
1546;DHT22;766;51.502;9.752;2023-05-29T02:24:16;12.80;99.90
1546;DHT22;766;51.502;9.752;2023-05-29T02:26:47;12.80;99.90
1546;DHT22;766;51.502;9.752;2023-05-29T02:29:16;12.80;99.90
1546;DHT22;766;51.502;9.752;2023-05-29T02:31:45;12.40;99.90
1546;DHT22;766;51.502;9.752;2023-05-29T02:34:15;12.40;99.90
1546;DHT22;766;51.502;9.752;2023-05-29T02:36:43;12.50;99.90
1546;DHT22;766;51.502;9.752;2023-05-29T02:39:11;12.50;99.90
1546;DHT22;766;51.502;9.752;2023-05-29T02:41:40;12.40;99.90
1546;DHT22;766;51.502;9.752;2023-05-29T02:44:08;12.40;99.90
1546;DHT22;766;51.502;9.752;2023-05-29T02:46:36;12.20;99.90
1546;DHT22;766;51.502;9.752;2023-05-29T02:49:06;12.20;99.90
1546;DHT22;766;51.502;9.752;2023-05-29T02:51:35;12.00;99.90
1546;DHT22;766;51.502;9.752;2023-05-29T02:54:04;11.80;99.90
1546;DHT22;766;51.502;9.752;2023-05-29T02:56:35;11.90;99.90
1546;DHT22;766;51.502;9.752;2023-05-29T02:59:04;11.90;99.90
1546;DHT22;766;51.502;9.752;2023-05-29T03:01:33;12.00;99.90
1546;DHT22;766;51.502;9.752;2023-05-29T03:04:02;12.00;99.90
1546;DHT22;766;51.502;9.752;2023-05-29T03:06:32;12.00;99.90
1546;DHT22;766;51.502;9.752;2023-05-29T03:09:00;11.70;99.90
1546;DHT22;766;51.502;9.752;2023-05-29T03:11:32;11.60;99.90
1546;DHT22;766;51.502;9.752;2023-05-29T03:14:05;11.50;99.90
1546;DHT22;766;51.502;9.752;2023-05-29T03:16:34;11.50;99.90
1546;DHT22;766;51.502;9.752;2023-05-29T03:19:03;11.60;99.90
1546;DHT22;766;51.502;9.752;2023-05-29T03:21:33;11.20;99.90
1546;DHT22;766;51.502;9.752;2023-05-29T03:24:03;11.40;99.90
1546;DHT22;766;51.502;9.752;2023-05-29T03:26:31;11.40;99.90
1546;DHT22;766;51.502;9.752;2023-05-29T03:28:59;11.60;99.90
1546;DHT22;766;51.502;9.752;2023-05-29T03:31:28;11.70;99.90
1546;DHT22;766;51.502;9.752;2023-05-29T03:33:57;11.80;99.90
1546;DHT22;766;51.502;9.752;2023-05-29T03:36:25;11.90;99.90
1546;DHT22;766;51.502;9.752;2023-05-29T03:38:56;11.70;99.90
1546;DHT22;766;51.502;9.752;2023-05-29T03:41:25;11.70;99.90
1546;DHT22;766;51.502;9.752;2023-05-29T03:43:53;11.70;99.90
1546;DHT22;766;51.502;9.752;2023-05-29T03:46:21;11.90;99.90
1546;DHT22;766;51.502;9.752;2023-05-29T03:48:50;11.80;99.90
1546;DHT22;766;51.502;9.752;2023-05-29T03:51:19;11.90;99.90
1546;DHT22;766;51.502;9.752;2023-05-29T03:53:48;11.90;99.90
1546;DHT22;766;51.502;9.752;2023-05-29T03:56:18;11.90;99.90
1546;DHT22;766;51.502;9.752;2023-05-29T03:58:46;11.90;99.90
1546;DHT22;766;51.502;9.752;2023-05-29T04:01:17;12.00;99.90
1546;DHT22;766;51.502;9.752;2023-05-29T04:03:45;12.00;99.90
1546;DHT22;766;51.502;9.752;2023-05-29T04:06:14;11.80;99.90
1546;DHT22;766;51.502;9.752;2023-05-29T04:08:46;11.90;99.90
1546;DHT22;766;51.502;9.752;2023-05-29T04:11:19;11.90;99.90
1546;DHT22;766;51.502;9.752;2023-05-29T04:13:49;11.90;99.90
1546;DHT22;766;51.502;9.752;2023-05-29T04:16:17;12.00;99.90
1546;DHT22;766;51.502;9.752;2023-05-29T04:18:46;12.10;99.90
1546;DHT22;766;51.502;9.752;2023-05-29T04:21:15;11.90;99.90
1546;DHT22;766;51.502;9.752;2023-05-29T04:23:45;12.10;99.90
1546;DHT22;766;51.502;9.752;2023-05-29T04:26:14;12.20;99.90
1546;DHT22;766;51.502;9.752;2023-05-29T04:28:44;12.40;99.90
1546;DHT22;766;51.502;9.752;2023-05-29T04:31:12;12.40;99.90
1546;DHT22;766;51.502;9.752;2023-05-29T04:33:43;12.60;99.90
1546;DHT22;766;51.502;9.752;2023-05-29T04:36:12;12.70;99.90
1546;DHT22;766;51.502;9.752;2023-05-29T04:38:43;12.70;99.90
1546;DHT22;766;51.502;9.752;2023-05-29T04:41:12;12.70;99.90
1546;DHT22;766;51.502;9.752;2023-05-29T04:43:41;12.70;99.90
1546;DHT22;766;51.502;9.752;2023-05-29T04:46:12;13.00;99.90
1546;DHT22;766;51.502;9.752;2023-05-29T04:48:42;13.10;99.90
1546;DHT22;766;51.502;9.752;2023-05-29T04:51:11;13.30;99.90
1546;DHT22;766;51.502;9.752;2023-05-29T04:53:39;13.50;99.90
1546;DHT22;766;51.502;9.752;2023-05-29T04:56:08;13.70;99.90
1546;DHT22;766;51.502;9.752;2023-05-29T04:58:37;14.20;99.90
1546;DHT22;766;51.502;9.752;2023-05-29T05:01:06;14.50;99.90
1546;DHT22;766;51.502;9.752;2023-05-29T05:03:37;14.50;99.90
1546;DHT22;766;51.502;9.752;2023-05-29T05:06:08;15.00;99.90
1546;DHT22;766;51.502;9.752;2023-05-29T05:08:37;15.50;99.90
1546;DHT22;766;51.502;9.752;2023-05-29T05:11:05;16.30;99.90
1546;DHT22;766;51.502;9.752;2023-05-29T05:13:34;16.80;99.90
1546;DHT22;766;51.502;9.752;2023-05-29T05:16:03;16.80;99.90
1546;DHT22;766;51.502;9.752;2023-05-29T05:18:32;17.10;99.90
1546;DHT22;766;51.502;9.752;2023-05-29T05:21:02;17.60;99.90
1546;DHT22;766;51.502;9.752;2023-05-29T05:23:31;17.20;99.90
1546;DHT22;766;51.502;9.752;2023-05-29T05:26:15;16.00;99.90
1546;DHT22;766;51.502;9.752;2023-05-29T05:28:43;15.80;99.90
1546;DHT22;766;51.502;9.752;2023-05-29T05:31:11;15.40;99.90
1546;DHT22;766;51.502;9.752;2023-05-29T05:33:40;15.20;99.90
1546;DHT22;766;51.502;9.752;2023-05-29T05:36:11;15.30;99.90
1546;DHT22;766;51.502;9.752;2023-05-29T05:38:40;15.10;99.90
1546;DHT22;766;51.502;9.752;2023-05-29T05:41:09;15.10;99.90
1546;DHT22;766;51.502;9.752;2023-05-29T05:43:38;15.00;99.90
1546;DHT22;766;51.502;9.752;2023-05-29T05:46:07;15.20;99.90
1546;DHT22;766;51.502;9.752;2023-05-29T05:48:35;15.50;99.90
1546;DHT22;766;51.502;9.752;2023-05-29T05:51:04;16.00;99.90
1546;DHT22;766;51.502;9.752;2023-05-29T05:53:34;16.70;99.90
1546;DHT22;766;51.502;9.752;2023-05-29T05:56:03;17.50;99.90
1546;DHT22;766;51.502;9.752;2023-05-29T05:58:31;17.90;99.90
1546;DHT22;766;51.502;9.752;2023-05-29T06:01:00;18.60;99.90
1546;DHT22;766;51.502;9.752;2023-05-29T06:03:29;19.10;99.90
1546;DHT22;766;51.502;9.752;2023-05-29T06:06:00;19.40;99.90
1546;DHT22;766;51.502;9.752;2023-05-29T06:08:29;19.60;99.90
1546;DHT22;766;51.502;9.752;2023-05-29T06:11:00;19.70;99.90
1546;DHT22;766;51.502;9.752;2023-05-29T06:13:29;20.70;99.90
1546;DHT22;766;51.502;9.752;2023-05-29T06:16:06;20.90;99.90
1546;DHT22;766;51.502;9.752;2023-05-29T06:18:35;21.40;99.90
1546;DHT22;766;51.502;9.752;2023-05-29T06:21:03;21.70;99.90
1546;DHT22;766;51.502;9.752;2023-05-29T06:23:40;22.60;99.90
1546;DHT22;766;51.502;9.752;2023-05-29T06:26:11;22.20;99.90
1546;DHT22;766;51.502;9.752;2023-05-29T06:28:40;22.00;99.90
1546;DHT22;766;51.502;9.752;2023-05-29T06:31:09;21.50;99.90
1546;DHT22;766;51.502;9.752;2023-05-29T06:33:38;21.70;99.90
1546;DHT22;766;51.502;9.752;2023-05-29T06:36:06;21.90;99.90
1546;DHT22;766;51.502;9.752;2023-05-29T06:38:38;22.70;99.90
1546;DHT22;766;51.502;9.752;2023-05-29T06:41:07;23.30;99.90
1546;DHT22;766;51.502;9.752;2023-05-29T06:43:36;23.80;99.90
1546;DHT22;766;51.502;9.752;2023-05-29T06:46:05;24.80;99.90
1546;DHT22;766;51.502;9.752;2023-05-29T06:48:33;25.00;99.90
1546;DHT22;766;51.502;9.752;2023-05-29T06:51:02;25.00;99.90
1546;DHT22;766;51.502;9.752;2023-05-29T06:53:35;25.50;99.90
1546;DHT22;766;51.502;9.752;2023-05-29T06:56:04;26.30;99.90
1546;DHT22;766;51.502;9.752;2023-05-29T06:58:33;27.00;99.90
1546;DHT22;766;51.502;9.752;2023-05-29T07:01:03;27.50;99.90
1546;DHT22;766;51.502;9.752;2023-05-29T07:03:35;27.70;99.90
1546;DHT22;766;51.502;9.752;2023-05-29T07:06:05;27.70;99.90
1546;DHT22;766;51.502;9.752;2023-05-29T07:08:34;27.80;99.90
1546;DHT22;766;51.502;9.752;2023-05-29T07:11:03;28.50;99.90
1546;DHT22;766;51.502;9.752;2023-05-29T07:13:32;28.20;99.60
1546;DHT22;766;51.502;9.752;2023-05-29T07:16:02;26.40;99.90
1546;DHT22;766;51.502;9.752;2023-05-29T07:18:50;26.70;99.90
1546;DHT22;766;51.502;9.752;2023-05-29T07:21:18;27.60;99.90
1546;DHT22;766;51.502;9.752;2023-05-29T07:23:47;28.40;99.90
1546;DHT22;766;51.502;9.752;2023-05-29T07:26:16;28.80;97.50
1546;DHT22;766;51.502;9.752;2023-05-29T07:28:44;28.20;98.90
1546;DHT22;766;51.502;9.752;2023-05-29T07:31:14;28.80;98.70
1546;DHT22;766;51.502;9.752;2023-05-29T07:33:43;28.80;97.10
1546;DHT22;766;51.502;9.752;2023-05-29T07:36:12;30.00;96.10
1546;DHT22;766;51.502;9.752;2023-05-29T07:38:40;30.00;96.20
1546;DHT22;766;51.502;9.752;2023-05-29T07:41:10;29.30;94.90
1546;DHT22;766;51.502;9.752;2023-05-29T07:43:39;28.20;95.20
1546;DHT22;766;51.502;9.752;2023-05-29T07:46:07;29.40;95.30
1546;DHT22;766;51.502;9.752;2023-05-29T07:48:40;29.70;94.90
1546;DHT22;766;51.502;9.752;2023-05-29T07:51:09;29.60;94.50
1546;DHT22;766;51.502;9.752;2023-05-29T07:53:38;28.80;96.10
1546;DHT22;766;51.502;9.752;2023-05-29T07:56:07;28.30;95.30
1546;DHT22;766;51.502;9.752;2023-05-29T07:58:35;29.30;94.70
1546;DHT22;766;51.502;9.752;2023-05-29T08:01:04;30.10;94.30
1546;DHT22;766;51.502;9.752;2023-05-29T08:03:33;29.90;94.30
1546;DHT22;766;51.502;9.752;2023-05-29T08:06:03;29.10;93.80
1546;DHT22;766;51.502;9.752;2023-05-29T08:08:32;29.10;93.90
1546;DHT22;766;51.502;9.752;2023-05-29T08:11:01;29.30;94.80
1546;DHT22;766;51.502;9.752;2023-05-29T08:13:30;28.10;95.20
1546;DHT22;766;51.502;9.752;2023-05-29T08:15:59;27.60;95.20
1546;DHT22;766;51.502;9.752;2023-05-29T08:18:29;27.40;96.00
1546;DHT22;766;51.502;9.752;2023-05-29T08:20:58;27.70;97.00
1546;DHT22;766;51.502;9.752;2023-05-29T08:23:29;27.50;96.80
1546;DHT22;766;51.502;9.752;2023-05-29T08:26:04;28.10;96.10
1546;DHT22;766;51.502;9.752;2023-05-29T08:28:33;28.30;96.00
1546;DHT22;766;51.502;9.752;2023-05-29T08:31:02;28.50;95.30
1546;DHT22;766;51.502;9.752;2023-05-29T08:33:30;29.70;95.50
1546;DHT22;766;51.502;9.752;2023-05-29T08:36:00;29.80;94.70
1546;DHT22;766;51.502;9.752;2023-05-29T08:38:29;30.30;94.00
1546;DHT22;766;51.502;9.752;2023-05-29T08:40:58;31.00;93.70
1546;DHT22;766;51.502;9.752;2023-05-29T08:43:30;31.20;92.70
1546;DHT22;766;51.502;9.752;2023-05-29T08:46:01;30.60;92.30
1546;DHT22;766;51.502;9.752;2023-05-29T08:48:31;30.50;91.80
1546;DHT22;766;51.502;9.752;2023-05-29T08:51:03;30.40;92.00
1546;DHT22;766;51.502;9.752;2023-05-29T08:53:33;30.00;91.30
1546;DHT22;766;51.502;9.752;2023-05-29T08:56:02;29.70;92.50
1546;DHT22;766;51.502;9.752;2023-05-29T08:58:32;30.00;93.40
1546;DHT22;766;51.502;9.752;2023-05-29T09:01:02;30.90;92.40
1546;DHT22;766;51.502;9.752;2023-05-29T09:03:30;31.20;92.60
1546;DHT22;766;51.502;9.752;2023-05-29T09:05:59;31.30;92.30
1546;DHT22;766;51.502;9.752;2023-05-29T09:08:30;31.70;91.90
1546;DHT22;766;51.502;9.752;2023-05-29T09:11:01;31.00;89.20
1546;DHT22;766;51.502;9.752;2023-05-29T09:13:30;31.30;89.80
1546;DHT22;766;51.502;9.752;2023-05-29T09:15:59;30.90;90.50
1546;DHT22;766;51.502;9.752;2023-05-29T09:18:29;30.70;92.00
1546;DHT22;766;51.502;9.752;2023-05-29T09:20:58;31.20;91.30
1546;DHT22;766;51.502;9.752;2023-05-29T09:23:29;30.70;91.40
1546;DHT22;766;51.502;9.752;2023-05-29T09:25:57;31.30;91.70
1546;DHT22;766;51.502;9.752;2023-05-29T09:28:30;31.70;90.50
1546;DHT22;766;51.502;9.752;2023-05-29T09:31:00;31.40;90.60
1546;DHT22;766;51.502;9.752;2023-05-29T09:33:28;30.90;90.60
1546;DHT22;766;51.502;9.752;2023-05-29T09:35:59;30.90;90.80
1546;DHT22;766;51.502;9.752;2023-05-29T09:38:30;30.60;90.30
1546;DHT22;766;51.502;9.752;2023-05-29T09:41:23;30.50;90.60
1546;DHT22;766;51.502;9.752;2023-05-29T09:43:54;29.80;90.00
1546;DHT22;766;51.502;9.752;2023-05-29T09:46:22;29.60;92.00
1546;DHT22;766;51.502;9.752;2023-05-29T09:48:51;29.80;92.40
1546;DHT22;766;51.502;9.752;2023-05-29T09:51:20;29.90;91.60
1546;DHT22;766;51.502;9.752;2023-05-29T09:53:52;30.40;91.80
1546;DHT22;766;51.502;9.752;2023-05-29T09:56:23;30.80;90.40
1546;DHT22;766;51.502;9.752;2023-05-29T09:58:56;30.30;90.00
1546;DHT22;766;51.502;9.752;2023-05-29T10:01:25;30.70;90.10
1546;DHT22;766;51.502;9.752;2023-05-29T10:03:54;30.60;87.60
1546;DHT22;766;51.502;9.752;2023-05-29T10:06:23;30.10;91.00
1546;DHT22;766;51.502;9.752;2023-05-29T10:08:52;30.60;91.70
1546;DHT22;766;51.502;9.752;2023-05-29T10:11:25;31.20;90.60
1546;DHT22;766;51.502;9.752;2023-05-29T10:13:57;31.60;90.70
1546;DHT22;766;51.502;9.752;2023-05-29T10:16:27;31.50;90.00
1546;DHT22;766;51.502;9.752;2023-05-29T10:19:00;31.40;89.70
1546;DHT22;766;51.502;9.752;2023-05-29T10:21:36;30.90;90.90
1546;DHT22;766;51.502;9.752;2023-05-29T10:24:07;30.40;91.60
1546;DHT22;766;51.502;9.752;2023-05-29T10:26:38;30.30;91.00
1546;DHT22;766;51.502;9.752;2023-05-29T10:29:15;30.30;91.90
1546;DHT22;766;51.502;9.752;2023-05-29T10:31:54;30.00;91.90
1546;DHT22;766;51.502;9.752;2023-05-29T10:34:31;30.40;92.10
1546;DHT22;766;51.502;9.752;2023-05-29T10:37:06;30.40;91.70
1546;DHT22;766;51.502;9.752;2023-05-29T10:39:34;30.50;92.50
1546;DHT22;766;51.502;9.752;2023-05-29T10:42:40;30.50;91.90
1546;DHT22;766;51.502;9.752;2023-05-29T10:45:10;30.00;91.60
1546;DHT22;766;51.502;9.752;2023-05-29T10:47:39;29.70;92.60
1546;DHT22;766;51.502;9.752;2023-05-29T10:50:09;29.60;92.50
1546;DHT22;766;51.502;9.752;2023-05-29T10:52:46;29.50;92.00
1546;DHT22;766;51.502;9.752;2023-05-29T10:55:16;29.20;92.60
1546;DHT22;766;51.502;9.752;2023-05-29T10:57:47;28.90;93.20
1546;DHT22;766;51.502;9.752;2023-05-29T11:00:18;28.60;92.70
1546;DHT22;766;51.502;9.752;2023-05-29T11:02:52;29.10;94.70
1546;DHT22;766;51.502;9.752;2023-05-29T11:05:22;28.90;94.20
1546;DHT22;766;51.502;9.752;2023-05-29T11:07:52;28.80;95.10
1546;DHT22;766;51.502;9.752;2023-05-29T11:10:41;28.90;94.70
1546;DHT22;766;51.502;9.752;2023-05-29T11:13:09;28.50;95.00
1546;DHT22;766;51.502;9.752;2023-05-29T11:15:40;28.40;94.80
1546;DHT22;766;51.502;9.752;2023-05-29T11:18:11;28.50;94.00
1546;DHT22;766;51.502;9.752;2023-05-29T11:20:45;28.10;94.10
1546;DHT22;766;51.502;9.752;2023-05-29T11:23:19;26.70;96.40
1546;DHT22;766;51.502;9.752;2023-05-29T11:25:48;27.20;97.60
1546;DHT22;766;51.502;9.752;2023-05-29T11:28:17;27.70;96.50
1546;DHT22;766;51.502;9.752;2023-05-29T11:30:48;27.30;96.50
1546;DHT22;766;51.502;9.752;2023-05-29T11:33:24;27.40;95.70
1546;DHT22;766;51.502;9.752;2023-05-29T11:35:58;27.00;96.30
1546;DHT22;766;51.502;9.752;2023-05-29T11:38:28;27.00;98.20
1546;DHT22;766;51.502;9.752;2023-05-29T11:40:57;26.80;97.80
1546;DHT22;766;51.502;9.752;2023-05-29T11:43:26;26.40;97.20
1546;DHT22;766;51.502;9.752;2023-05-29T11:45:56;26.20;96.90
1546;DHT22;766;51.502;9.752;2023-05-29T11:48:25;26.20;97.60
1546;DHT22;766;51.502;9.752;2023-05-29T11:51:12;25.40;98.10
1546;DHT22;766;51.502;9.752;2023-05-29T11:53:42;26.00;98.60
1546;DHT22;766;51.502;9.752;2023-05-29T11:56:10;26.00;99.70
1546;DHT22;766;51.502;9.752;2023-05-29T11:58:39;25.90;99.80
1546;DHT22;766;51.502;9.752;2023-05-29T12:01:10;25.70;99.90
1546;DHT22;766;51.502;9.752;2023-05-29T12:03:39;26.00;99.40
1546;DHT22;766;51.502;9.752;2023-05-29T12:06:08;26.40;99.00
1546;DHT22;766;51.502;9.752;2023-05-29T12:08:37;25.80;99.50
1546;DHT22;766;51.502;9.752;2023-05-29T12:11:06;25.90;99.30
1546;DHT22;766;51.502;9.752;2023-05-29T12:13:35;25.70;99.90
1546;DHT22;766;51.502;9.752;2023-05-29T12:16:05;26.10;99.90
1546;DHT22;766;51.502;9.752;2023-05-29T12:18:35;26.30;99.90
1546;DHT22;766;51.502;9.752;2023-05-29T12:21:04;26.20;99.90
1546;DHT22;766;51.502;9.752;2023-05-29T12:23:36;26.40;99.90
1546;DHT22;766;51.502;9.752;2023-05-29T12:26:09;26.30;99.00
1546;DHT22;766;51.502;9.752;2023-05-29T12:28:42;26.40;99.90
1546;DHT22;766;51.502;9.752;2023-05-29T12:31:11;26.30;99.90
1546;DHT22;766;51.502;9.752;2023-05-29T12:33:44;26.20;98.60
1546;DHT22;766;51.502;9.752;2023-05-29T12:36:12;26.20;99.10
1546;DHT22;766;51.502;9.752;2023-05-29T12:38:51;26.00;99.90
1546;DHT22;766;51.502;9.752;2023-05-29T12:41:25;26.10;98.90
1546;DHT22;766;51.502;9.752;2023-05-29T12:43:54;25.80;98.30
1546;DHT22;766;51.502;9.752;2023-05-29T12:46:24;25.60;97.60
1546;DHT22;766;51.502;9.752;2023-05-29T12:48:55;25.70;98.90
1546;DHT22;766;51.502;9.752;2023-05-29T12:51:24;25.60;99.70
1546;DHT22;766;51.502;9.752;2023-05-29T12:53:53;25.90;98.80
1546;DHT22;766;51.502;9.752;2023-05-29T12:56:25;25.90;97.70
1546;DHT22;766;51.502;9.752;2023-05-29T12:58:55;25.70;97.30
1546;DHT22;766;51.502;9.752;2023-05-29T13:01:23;25.40;98.40
1546;DHT22;766;51.502;9.752;2023-05-29T13:03:51;24.70;98.10
1546;DHT22;766;51.502;9.752;2023-05-29T13:06:21;24.80;99.90
1546;DHT22;766;51.502;9.752;2023-05-29T13:08:50;24.90;99.00
1546;DHT22;766;51.502;9.752;2023-05-29T13:11:18;24.70;99.90
1546;DHT22;766;51.502;9.752;2023-05-29T13:13:47;24.80;98.10
1546;DHT22;766;51.502;9.752;2023-05-29T13:16:16;24.60;99.70
1546;DHT22;766;51.502;9.752;2023-05-29T13:18:46;24.60;99.70
1546;DHT22;766;51.502;9.752;2023-05-29T13:21:15;24.40;99.70
1546;DHT22;766;51.502;9.752;2023-05-29T13:23:45;24.40;99.90
1546;DHT22;766;51.502;9.752;2023-05-29T13:26:14;24.60;99.90
1546;DHT22;766;51.502;9.752;2023-05-29T13:28:42;24.80;99.80
1546;DHT22;766;51.502;9.752;2023-05-29T13:31:11;25.00;99.90
1546;DHT22;766;51.502;9.752;2023-05-29T13:33:39;24.80;99.30
1546;DHT22;766;51.502;9.752;2023-05-29T13:36:08;24.90;99.30
1546;DHT22;766;51.502;9.752;2023-05-29T13:38:37;25.00;99.90
1546;DHT22;766;51.502;9.752;2023-05-29T13:41:07;25.00;99.90
1546;DHT22;766;51.502;9.752;2023-05-29T13:43:36;24.70;99.90
1546;DHT22;766;51.502;9.752;2023-05-29T13:46:11;24.60;99.90
1546;DHT22;766;51.502;9.752;2023-05-29T13:48:39;24.60;99.90
1546;DHT22;766;51.502;9.752;2023-05-29T13:51:08;24.40;99.90
1546;DHT22;766;51.502;9.752;2023-05-29T13:53:37;24.20;99.70
1546;DHT22;766;51.502;9.752;2023-05-29T13:56:08;24.10;99.90
1546;DHT22;766;51.502;9.752;2023-05-29T13:58:36;24.00;99.90
1546;DHT22;766;51.502;9.752;2023-05-29T14:01:05;24.00;99.90
1546;DHT22;766;51.502;9.752;2023-05-29T14:03:33;23.90;99.90
1546;DHT22;766;51.502;9.752;2023-05-29T14:06:03;23.90;99.90
1546;DHT22;766;51.502;9.752;2023-05-29T14:08:32;24.00;99.90
1546;DHT22;766;51.502;9.752;2023-05-29T14:11:01;24.00;99.90
1546;DHT22;766;51.502;9.752;2023-05-29T14:13:31;24.10;99.90
1546;DHT22;766;51.502;9.752;2023-05-29T14:15:59;24.10;99.90
1546;DHT22;766;51.502;9.752;2023-05-29T14:18:28;24.00;99.90
1546;DHT22;766;51.502;9.752;2023-05-29T14:20:56;23.70;99.90
1546;DHT22;766;51.502;9.752;2023-05-29T14:23:26;23.60;99.90
1546;DHT22;766;51.502;9.752;2023-05-29T14:25:54;23.30;99.90
1546;DHT22;766;51.502;9.752;2023-05-29T14:28:22;23.30;99.90
1546;DHT22;766;51.502;9.752;2023-05-29T14:30:52;23.30;99.90
1546;DHT22;766;51.502;9.752;2023-05-29T14:33:21;23.30;99.90
1546;DHT22;766;51.502;9.752;2023-05-29T14:35:51;23.30;99.90
1546;DHT22;766;51.502;9.752;2023-05-29T14:38:20;23.20;99.90
1546;DHT22;766;51.502;9.752;2023-05-29T14:40:48;23.10;99.90
1546;DHT22;766;51.502;9.752;2023-05-29T14:43:27;22.80;99.90
1546;DHT22;766;51.502;9.752;2023-05-29T14:45:57;22.80;99.90
1546;DHT22;766;51.502;9.752;2023-05-29T14:48:26;22.70;99.90
1546;DHT22;766;51.502;9.752;2023-05-29T14:50:55;22.50;99.90
1546;DHT22;766;51.502;9.752;2023-05-29T14:53:23;22.50;99.90
1546;DHT22;766;51.502;9.752;2023-05-29T14:55:52;22.40;99.90
1546;DHT22;766;51.502;9.752;2023-05-29T14:58:23;22.40;99.90
1546;DHT22;766;51.502;9.752;2023-05-29T15:00:51;22.10;99.90
1546;DHT22;766;51.502;9.752;2023-05-29T15:03:21;22.10;99.90
1546;DHT22;766;51.502;9.752;2023-05-29T15:05:53;22.20;99.90
1546;DHT22;766;51.502;9.752;2023-05-29T15:08:22;22.10;99.90
1546;DHT22;766;51.502;9.752;2023-05-29T15:10:50;22.30;99.90
1546;DHT22;766;51.502;9.752;2023-05-29T15:13:19;22.30;99.90
1546;DHT22;766;51.502;9.752;2023-05-29T15:15:47;22.20;99.90
1546;DHT22;766;51.502;9.752;2023-05-29T15:18:16;22.10;99.90
1546;DHT22;766;51.502;9.752;2023-05-29T15:20:46;22.10;99.90
1546;DHT22;766;51.502;9.752;2023-05-29T15:23:15;22.10;99.90
1546;DHT22;766;51.502;9.752;2023-05-29T15:25:44;22.10;99.90
1546;DHT22;766;51.502;9.752;2023-05-29T15:28:13;21.90;99.90
1546;DHT22;766;51.502;9.752;2023-05-29T15:30:41;21.80;99.90
1546;DHT22;766;51.502;9.752;2023-05-29T15:33:10;21.80;99.90
1546;DHT22;766;51.502;9.752;2023-05-29T15:35:39;21.60;99.90
1546;DHT22;766;51.502;9.752;2023-05-29T15:38:10;21.60;99.90
1546;DHT22;766;51.502;9.752;2023-05-29T15:40:39;21.40;99.90
1546;DHT22;766;51.502;9.752;2023-05-29T15:43:08;21.40;99.90
1546;DHT22;766;51.502;9.752;2023-05-29T15:45:37;21.30;99.90
1546;DHT22;766;51.502;9.752;2023-05-29T15:48:06;21.20;99.90
1546;DHT22;766;51.502;9.752;2023-05-29T15:50:36;21.10;99.90
1546;DHT22;766;51.502;9.752;2023-05-29T15:53:04;20.90;99.90
1546;DHT22;766;51.502;9.752;2023-05-29T15:55:34;21.00;99.90
1546;DHT22;766;51.502;9.752;2023-05-29T15:58:03;20.60;99.90
1546;DHT22;766;51.502;9.752;2023-05-29T16:00:32;20.70;99.90
1546;DHT22;766;51.502;9.752;2023-05-29T16:03:01;20.70;99.90
1546;DHT22;766;51.502;9.752;2023-05-29T16:05:30;20.80;99.90
1546;DHT22;766;51.502;9.752;2023-05-29T16:07:59;20.90;99.90
1546;DHT22;766;51.502;9.752;2023-05-29T16:10:27;20.70;99.90
1546;DHT22;766;51.502;9.752;2023-05-29T16:12:58;20.70;99.90
1546;DHT22;766;51.502;9.752;2023-05-29T16:15:26;20.70;99.90
1546;DHT22;766;51.502;9.752;2023-05-29T16:17:54;20.80;99.90
1546;DHT22;766;51.502;9.752;2023-05-29T16:20:23;20.60;99.90
1546;DHT22;766;51.502;9.752;2023-05-29T16:22:51;20.50;99.90
1546;DHT22;766;51.502;9.752;2023-05-29T16:25:20;20.60;99.90
1546;DHT22;766;51.502;9.752;2023-05-29T16:27:49;20.50;99.90
1546;DHT22;766;51.502;9.752;2023-05-29T16:30:18;20.50;99.90
1546;DHT22;766;51.502;9.752;2023-05-29T16:32:47;20.50;99.90
1546;DHT22;766;51.502;9.752;2023-05-29T16:35:16;20.50;99.90
1546;DHT22;766;51.502;9.752;2023-05-29T16:37:45;20.30;99.90